Time;durP1;ratioP1;P1;durP2;ratioP2;P2;SDS_P1;SDS_P2;PMS_P1;PMS_P2;Temp;Humidity;BMP_temperature;BMP_pressure;BME280_temperature;BME280_humidity;BME280_pressure;Samples;Min_cycle;Max_cycle;Signal;HPM_P1;HPM_P2
2023/04/15 18:29:36;;;;;;;9.83;4.50;;;;;;;;;;5131367;27;21050;-79
2023/04/15 18:32:03;;;;;;;2.73;2.07;;;;;;;;;;5131075;28;20471;-79
2023/04/15 18:34:30;;;;;;;3.40;2.63;;;;;;;;;;5129882;28;20443;-79
2023/04/15 18:36:57;;;;;;;16.17;13.20;;;;;;;;;;5131302;28;20450;-79
2023/04/15 18:39:24;;;;;;;3.50;2.87;;;;;;;;;;5131188;27;20446;-80
2023/04/15 18:41:51;;;;;;;6.80;3.80;;;;;;;;;;5130952;28;20442;-79
2023/04/15 18:44:18;;;;;;;4.13;2.93;;;;;;;;;;5131111;28;20446;-80
2023/04/15 18:46:48;;;;;;;5.73;3.10;;;7.50;99.90;;;;;;5131032;28;21107;-79
2023/04/15 18:49:16;;;;;;;12.77;7.00;;;7.50;99.90;;;;;;5129772;28;20491;-80
2023/04/15 18:51:43;;;;;;;4.80;2.07;;;;;;;;;;5129810;27;20454;-79
2023/04/15 18:54:11;;;;;;;2.10;1.80;;;;;;;;;;5130477;28;20492;-79
2023/04/15 18:56:38;;;;;;;5.53;3.00;;;;;;;;;;5130841;28;20465;-81
2023/04/15 18:59:05;;;;;;;4.40;3.33;;;;;;;;;;5130346;28;20458;-78
2023/04/15 19:01:32;;;;;;;6.00;3.47;;;;;;;;;;5129688;28;20446;-79
2023/04/15 19:04:02;;;;;;;3.37;2.20;;;;;;;;;;5130068;28;20451;-79
2023/04/15 19:06:29;;;;;;;5.97;4.37;;;;;;;;;;5143107;27;20442;-83
2023/04/15 19:08:57;;;;;;;6.23;4.57;;;;;;;;;;5149875;27;20492;-84
2023/04/15 19:11:24;;;;;;;3.30;3.00;;;;;;;;;;5150792;27;20450;-78
2023/04/15 19:13:52;;;;;;;3.07;2.20;;;;;;;;;;5150643;27;20945;-77
2023/04/15 19:16:19;;;;;;;3.87;2.50;;;;;;;;;;5150617;27;20454;-79
2023/04/15 19:18:46;;;;;;;5.57;4.47;;;;;;;;;;5150583;27;20442;-80
2023/04/15 19:21:15;;;;;;;7.80;5.33;;;;;;;;;;5149057;27;20456;-81
2023/04/15 19:23:42;;;;;;;7.90;5.53;;;;;;;;;;5134768;27;20839;-82
2023/04/15 19:26:09;;;;;;;13.80;9.77;;;;;;;;;;5127608;28;20447;-83
2023/04/15 19:28:36;;;;;;;6.47;5.20;;;;;;;;;;5129447;28;20655;-81
2023/04/15 19:31:03;;;;;;;5.30;3.80;;;;;;;;;;5129714;28;20466;-79
2023/04/15 19:33:31;;;;;;;7.00;5.97;;;;;;;;;;5129595;28;20816;-81
2023/04/15 19:35:58;;;;;;;9.43;4.70;;;;;;;;;;5127814;28;20450;-78
2023/04/15 19:38:26;;;;;;;6.17;4.43;;;;;;;;;;5129512;28;20447;-79
2023/04/15 19:40:53;;;;;;;8.73;5.57;;;;;;;;;;5116059;28;20451;-78
2023/04/15 19:43:20;;;;;;;19.63;8.50;;;;;;;;;;5115909;28;20447;-78
2023/04/15 19:45:50;;;;;;;25.37;9.57;;;;;;;;;;5115893;28;20444;-78
2023/04/15 19:48:18;;;;;;;8.90;5.00;;;;;;;;;;5115648;28;20544;-77
2023/04/15 19:50:45;;;;;;;7.63;4.90;;;;;;;;;;5113690;28;20455;-78
2023/04/15 19:53:12;;;;;;;3.93;2.93;;;;;;;;;;5115513;28;20514;-78
2023/04/15 19:55:40;;;;;;;6.33;4.97;;;;;;;;;;5115550;28;20833;-78
2023/04/15 19:58:07;;;;;;;6.10;3.80;;;;;;;;;;5115477;28;20440;-77
2023/04/15 20:00:35;;;;;;;5.63;3.77;;;;;;;;;;5115464;28;20804;-78
2023/04/15 20:03:02;;;;;;;6.47;4.57;;;;;;;;;;5115464;28;20444;-79
2023/04/15 20:05:29;;;;;;;5.37;4.83;;;;;;;;;;5113875;28;20455;-78
2023/04/15 20:07:56;;;;;;;5.90;4.33;;;;;;;;;;5115672;28;20443;-77
2023/04/15 20:10:23;;;;;;;5.37;3.93;;;7.20;99.90;;;;;;5115721;28;20468;-78
2023/04/15 20:12:51;;;;;;;4.50;3.17;;;7.30;99.90;;;;;;5115387;28;20968;-78
2023/04/15 20:15:18;;;;;;;5.00;3.90;;;;;;;;;;5115394;28;20451;-78
2023/04/15 20:17:45;;;;;;;6.00;3.90;;;;;;;;;;5115281;28;20530;-78
2023/04/15 20:20:13;;;;;;;6.00;4.57;;;;;;;;;;5113763;28;20451;-78
2023/04/15 20:22:40;;;;;;;5.07;3.70;;;;;;;;;;5115395;28;20802;-78
2023/04/15 20:25:07;;;;;;;5.57;4.87;;;;;;;;;;5115332;28;20458;-77
2023/04/15 20:27:35;;;;;;;4.90;4.37;;;;;;;;;;5114819;28;20476;-79
2023/04/15 20:30:03;;;;;;;3.87;3.20;;;;;;;;;;5114934;28;20498;-79
2023/04/15 20:32:33;;;;;;;4.03;3.23;;;;;;;;;;5115118;28;20451;-79
2023/04/15 20:35:01;;;;;;;3.47;2.83;;;;;;;;;;5113283;28;20532;-81
2023/04/15 20:37:28;;;;;;;5.80;3.20;;;;;;;;;;5115161;28;20520;-79
2023/04/15 20:39:55;;;;;;;4.10;3.50;;;;;;;;;;5098434;28;20448;-79
2023/04/15 20:42:22;;;;;;;4.90;4.20;;;;;;;;;;5113835;28;20807;-80
2023/04/15 20:44:50;;;;;;;4.67;3.93;;;;;;;;;;5114199;28;20451;-79
2023/04/15 20:47:18;;;;;;;6.97;4.47;;;;;;;;;;5114663;28;20487;-80
2023/04/15 20:49:46;;;;;;;8.60;5.20;;;;;;;;;;5113089;28;20498;-81
2023/04/15 20:52:13;;;;;;;11.77;3.90;;;;;;;;;;5113577;28;20557;-80
2023/04/15 20:54:40;;;;;;;6.40;4.47;;;;;;;;;;5117113;28;20447;-80
2023/04/15 20:57:07;;;;;;;5.70;4.70;;;;;;;;;;5132824;28;20451;-80
2023/04/15 20:59:34;;;;;;;6.90;5.57;;;;;;;;;;5128912;28;20456;-81
2023/04/15 21:02:01;;;;;;;4.67;4.17;;;;;;;;;;5108674;28;20441;-80
2023/04/15 21:04:31;;;;;;;4.70;4.20;;;;;;;;;;5093131;28;20467;-80
2023/04/15 21:06:58;;;;;;;6.17;4.90;;;;;;;;;;5094081;28;20444;-79
2023/04/15 21:09:25;;;;;;;6.30;4.90;;;;;;;;;;5093981;28;20500;-80
2023/04/15 21:11:52;;;;;;;6.53;5.07;;;;;;;;;;5094299;28;20488;-86
2023/04/15 21:14:19;;;;;;;4.77;3.93;;;;;;;;;;5094448;28;20459;-80
2023/04/15 21:16:46;;;;;;;7.97;4.17;;;;;;;;;;5093929;28;20445;-82
2023/04/15 21:19:13;;;;;;;6.13;5.20;;;;;;;;;;5092811;28;20449;-80
2023/04/15 21:21:42;;;;;;;6.80;4.97;;;;;;;;;;5094084;28;20457;-84
2023/04/15 21:24:09;;;;;;;5.73;4.33;;;;;;;;;;5094100;28;20449;-84
2023/04/15 21:26:36;;;;;;;5.40;4.23;;;;;;;;;;5093636;28;20787;-86
2023/04/15 21:29:03;;;;;;;5.80;5.03;;;;;;;;;;5093429;28;20541;-86
2023/04/15 21:31:30;;;;;;;6.10;5.20;;;;;;;;;;5093911;28;20453;-84
2023/04/15 21:33:57;;;;;;;5.50;4.27;;;;;;;;;;5093839;28;20821;-89
2023/04/15 21:36:25;;;;;;;6.80;5.33;;;;;;;;;;5092816;28;20448;-77
2023/04/15 21:38:53;;;;;;;6.57;5.10;;;7.10;99.90;;;;;;5093668;28;20507;-78
2023/04/15 21:41:20;;;;;;;6.87;5.60;;;;;;;;;;5093634;28;20445;-78
2023/04/15 21:43:47;;;;;;;6.50;5.27;;;;;;;;;;5093721;28;20805;-77
2023/04/15 21:46:14;;;;;;;6.47;4.93;;;;;;;;;;5093510;28;20814;-77
2023/04/15 21:48:42;;;;;;;5.50;4.70;;;;;;;;;;5072411;28;20485;-76
2023/04/15 21:51:09;;;;;;;7.10;5.70;;;;;;;;;;5072141;28;20441;-76
2023/04/15 21:53:36;;;;;;;5.90;4.90;;;;;;;;;;5073172;28;20441;-76
2023/04/15 21:56:04;;;;;;;6.60;4.87;;;7.20;99.90;;;;;;5073017;28;20449;-76
2023/04/15 21:58:31;;;;;;;6.10;4.50;;;;;;;;;;5073158;28;20460;-76
2023/04/15 22:00:58;;;;;;;5.37;4.60;;;;;;;;;;5073110;28;20952;-77
2023/04/15 22:03:25;;;;;;;6.00;5.30;;;;;;;;;;5072393;28;20470;-77
2023/04/15 22:05:52;;;;;;;7.03;5.37;;;;;;;;;;5071771;28;20956;-76
2023/04/15 22:08:19;;;;;;;6.77;4.93;;;;;;;;;;5072687;28;20453;-77
2023/04/15 22:10:46;;;;;;;7.93;4.83;;;;;;;;;;5072947;28;20824;-76
2023/04/15 22:13:15;;;;;;;8.83;5.80;;;7.10;99.90;;;;;;5072959;28;20446;-76
2023/04/15 22:15:42;;;;;;;9.20;6.30;;;;;;;;;;5072684;28;20476;-76
2023/04/15 22:18:09;;;;;;;6.10;5.47;;;;;;;;;;5072133;28;20472;-76
2023/04/15 22:20:36;;;;;;;8.40;6.27;;;;;;;;;;5071747;28;20458;-76
2023/04/15 22:23:06;;;;;;;6.07;4.50;;;;;;;;;;5072788;28;20810;-79
2023/04/15 22:25:33;;;;;;;6.80;5.90;;;;;;;;;;5072652;28;20454;-76
2023/04/15 22:28:00;;;;;;;6.77;5.43;;;;;;;;;;5072286;28;20992;-75
2023/04/15 22:30:28;;;;;;;7.40;4.90;;;7.20;99.90;;;;;;5074218;28;20492;-76
2023/04/15 22:32:56;;;;;;;6.70;5.63;;;;;;;;;;5112014;28;20450;-80
2023/04/15 22:35:23;;;;;;;7.90;6.20;;;;;;;;;;5111403;28;20836;-76
2023/04/15 22:37:50;;;;;;;6.50;5.33;;;;;;;;;;5112775;28;20443;-77
2023/04/15 22:40:17;;;;;;;6.63;5.10;;;;;;;;;;5112959;28;20502;-77
2023/04/15 22:42:45;;;;;;;7.50;5.53;;;7.10;99.90;;;;;;5112928;28;20483;-76
2023/04/15 22:45:12;;;;;;;6.60;5.13;;;;;;;;;;5112801;28;20457;-76
2023/04/15 22:47:40;;;;;;;7.67;5.77;;;7.00;99.90;;;;;;5112606;28;20486;-76
2023/04/15 22:50:08;;;;;;;9.13;5.57;;;7.20;99.90;;;;;;5111133;28;20520;-75
2023/04/15 22:52:35;;;;;;;6.10;4.77;;;;;;;;;;5113073;28;20448;-76
2023/04/15 22:55:02;;;;;;;5.10;3.53;;;;;;;;;;5113055;28;20448;-76
2023/04/15 22:57:30;;;;;;;5.80;4.43;;;;;;;;;;5113179;28;20444;-76
2023/04/15 22:59:57;;;;;;;7.97;5.00;;;;;;;;;;5112510;28;20447;-76
2023/04/15 23:02:24;;;;;;;8.00;4.23;;;;;;;;;;5113189;28;20448;-76
2023/04/15 23:04:52;;;;;;;6.90;5.23;;;7.10;99.90;;;;;;5111917;28;20866;-76
2023/04/15 23:07:19;;;;;;;5.30;4.57;;;;;;;;;;5113049;28;20931;-76
2023/04/15 23:09:46;;;;;;;8.73;5.43;;;;;;;;;;5113075;28;20487;-76
2023/04/15 23:12:13;;;;;;;7.47;5.00;;;7.10;99.90;;;;;;5113134;28;20455;-77
2023/04/15 23:14:40;;;;;;;8.80;5.23;;;;;;;;;;5113661;28;20451;-76
2023/04/15 23:17:07;;;;;;;7.40;5.70;;;;;;;;;;5116755;28;20443;-77
2023/04/15 23:19:35;;;;;;;7.03;5.30;;;;;;;;;;5115762;28;20480;-76
2023/04/15 23:22:03;;;;;;;6.80;4.90;;;7.10;99.90;;;;;;5116667;28;20534;-76
2023/04/15 23:24:30;;;;;;;8.70;6.50;;;;;;;;;;5116689;28;20440;-78
2023/04/15 23:26:57;;;;;;;8.83;6.17;;;;;;;;;;5118466;28;20440;-75
2023/04/15 23:29:24;;;;;;;6.37;5.70;;;;;;;;;;5122995;28;20498;-77
2023/04/15 23:31:51;;;;;;;8.23;6.60;;;;;;;;;;5116631;28;20444;-76
2023/04/15 23:34:18;;;;;;;9.33;6.80;;;;;;;;;;5115390;28;20440;-76
2023/04/15 23:36:46;;;;;;;7.07;6.03;;;;;;;;;;5116416;28;20451;-76
2023/04/15 23:39:14;;;;;;;7.80;3.60;;;7.10;99.90;;;;;;5116578;28;20451;-76
2023/04/15 23:41:41;;;;;;;8.10;6.67;;;;;;;;;;5089671;28;20466;-78
2023/04/15 23:44:08;;;;;;;10.73;6.97;;;;;;;;;;5055558;28;20449;-76
2023/04/15 23:46:35;;;;;;;6.63;5.30;;;;;;;;;;5055492;28;20450;-76
2023/04/15 23:49:03;;;;;;;6.23;5.30;;;;;;;;;;5055437;28;20861;-76
2023/04/15 23:51:30;;;;;;;9.07;6.47;;;;;;;;;;5054243;28;20455;-76
2023/04/15 23:53:57;;;;;;;9.30;6.90;;;;;;;;;;5055492;28;20451;-76
2023/04/15 23:56:25;;;;;;;8.70;6.70;;;7.10;99.90;;;;;;5055488;28;20447;-76
2023/04/15 23:58:52;;;;;;;5.37;4.27;;;;;;;;;;5055246;28;20447;-77
